Airfield :
LOGIN :

Register | Disclaimer

   EN    FR    IT 

 










Legend :    VFR   Marginal VFR   IFR   Intensive IFR   Very Intensive IFR
Visi :
Ceiling :
>= 8 km
>= 3000ft
5 to 8 km
1000 to 3000 ft
1500m to 5 km
500 to 1000 ft
800 to 1500m
200 to 500 ft
< 800m
< 200 ft
Symbols :   Thunderstorms  Fog  Heavy snow  Heavy precipitations  Wind > 20 kt
SIGMETs :     Misc.  Thunderstorms  Icing  Turbulence  Mountain Waves  Volcanic Ashes






- Airport Elevation : 1910 ft
- IATA code : RDZ


LFCR - Rodez

CURRENT METAR :
  • 280500Z AUTO 09002KT CAVOK 12/08 Q1028 NOSIG

EXPIRED METARs :
  • 280430Z AUTO 11005KT CAVOK 10/06 Q1028 NOSIG
  • 280400Z AUTO 12003KT CAVOK 11/08 Q1028 NOSIG
  • 280330Z AUTO 13003KT CAVOK 11/08 Q1028 NOSIG
  • 280300Z AUTO 15003KT CAVOK 11/08 Q1028 NOSIG
  • 280230Z AUTO 13004KT CAVOK 12/08 Q1028 NOSIG

TAF TAF LFCR
Valid from the 28 at 00:00 until the 29 at 00:00 UTC


272300Z 2800/2824 13006KT CAVOK
TEMPO 2801/2809 VRB02KT
TEMPO 2810/2818 34010KT



MET'MAP, your aeronautical weather chart ! - Copyright ORBIFLY December 2007 - Disclaimer

ORBIFLY MET'MAP TEAM :

Programming & Development : Alexandra Zaïnal
Concept & original design : Baudouin d'Aumeries
Assistance for programming : Marc-Olivier Méhu
Technical & hardware support : Manuel Goepfert

Contact : metmap@orbifly.com




SOURCES & CREDITS :

   NOAA